createdAt,value
2018-10-01T01:15:46.878Z,3.07
2018-10-01T01:18:15.185Z,3.10
2018-10-01T01:20:43.477Z,3.10
2018-10-01T01:23:11.793Z,2.90
2018-10-01T01:25:40.674Z,2.90
2018-10-01T01:28:08.953Z,3.20
2018-10-01T01:30:37.235Z,3.00
2018-10-01T01:33:05.617Z,3.40
2018-10-01T01:35:33.998Z,3.10
2018-10-01T01:38:02.286Z,3.10
2018-10-01T01:40:30.641Z,3.37
2018-10-01T01:42:58.928Z,3.10
2018-10-01T01:45:27.241Z,3.00
2018-10-01T01:47:55.521Z,3.30
2018-10-01T01:50:23.843Z,3.37
2018-10-01T01:52:52.181Z,2.58
2018-10-01T01:55:20.457Z,3.20
2018-10-01T01:57:48.793Z,3.10
2018-10-01T02:00:17.089Z,3.40
2018-10-01T02:02:45.401Z,3.05
2018-10-01T02:05:13.757Z,3.40
2018-10-01T02:07:42.065Z,3.50
2018-10-01T02:10:10.393Z,3.30
2018-10-01T02:12:38.705Z,2.87
2018-10-01T02:15:07.055Z,2.80
2018-10-01T02:17:35.341Z,2.70
2018-10-01T02:20:03.687Z,2.80
2018-10-01T02:22:31.986Z,3.47
2018-10-01T02:25:00.274Z,2.70
2018-10-01T02:27:28.542Z,2.80
2018-10-01T02:29:56.566Z,3.30
2018-10-01T02:32:24.705Z,3.60
2018-10-01T02:34:52.718Z,3.27
2018-10-01T02:37:20.746Z,3.40
2018-10-01T02:39:48.786Z,3.80
2018-10-01T02:42:17.066Z,3.27
2018-10-01T02:44:45.503Z,3.20
2018-10-01T02:47:13.999Z,3.87
2018-10-01T02:49:42.275Z,3.40
2018-10-01T02:52:15.874Z,2.87
2018-10-01T02:54:44.282Z,3.10
2018-10-01T02:57:12.731Z,2.97
2018-10-01T02:59:41.186Z,3.10
2018-10-01T03:02:16.138Z,3.00
2018-10-01T03:04:44.503Z,3.23
2018-10-01T03:07:12.790Z,3.40
2018-10-01T03:09:41.146Z,3.53
2018-10-01T03:12:09.433Z,3.03
2018-10-01T03:14:37.734Z,2.93
2018-10-01T03:17:06.028Z,3.27
2018-10-01T03:19:34.307Z,3.00
2018-10-01T03:22:02.627Z,2.60
2018-10-01T03:24:30.987Z,3.10
2018-10-01T03:26:59.359Z,3.03
2018-10-01T03:29:27.619Z,3.27
2018-10-01T03:31:55.974Z,2.70
2018-10-01T03:34:24.334Z,2.97
2018-10-01T03:36:52.630Z,3.70
2018-10-01T03:39:20.973Z,3.00
2018-10-01T03:41:49.250Z,3.70
2018-10-01T03:44:17.635Z,2.90
2018-10-01T03:46:45.955Z,3.27
2018-10-01T03:49:14.292Z,2.97
2018-10-01T03:51:42.602Z,2.80
2018-10-01T03:54:10.971Z,3.23
2018-10-01T03:56:39.354Z,3.00
2018-10-01T03:59:07.679Z,3.17
2018-10-01T04:01:35.996Z,2.87
2018-10-01T04:04:04.335Z,2.93
2018-10-01T04:06:32.651Z,2.70
2018-10-01T04:09:01.188Z,2.27
2018-10-01T04:11:29.328Z,2.43
2018-10-01T04:13:57.627Z,2.80
2018-10-01T04:16:26.071Z,3.00
2018-10-01T04:19:00.998Z,2.63
2018-10-01T04:21:29.293Z,3.77
2018-10-01T04:23:57.592Z,2.80
2018-10-01T04:26:25.864Z,2.80
2018-10-01T04:28:54.140Z,3.02
2018-10-01T04:31:22.524Z,2.93
2018-10-01T04:33:51.047Z,2.40
2018-10-01T04:36:19.545Z,2.83
2018-10-01T04:38:48.101Z,3.60
2018-10-01T04:41:16.650Z,2.80
2018-10-01T04:43:45.037Z,2.77
2018-10-01T04:46:13.442Z,2.80
2018-10-01T04:48:42.238Z,2.65
2018-10-01T04:51:10.670Z,2.97
2018-10-01T04:53:39.025Z,3.10
2018-10-01T04:56:07.437Z,3.07
2018-10-01T04:58:35.937Z,2.77
2018-10-01T05:01:04.173Z,3.10
2018-10-01T05:03:32.490Z,2.60
2018-10-01T05:06:00.815Z,2.27
2018-10-01T05:08:29.170Z,2.27
2018-10-01T05:10:58.079Z,2.13
2018-10-01T05:13:26.470Z,2.50
2018-10-01T05:15:54.498Z,2.60
2018-10-01T05:18:22.959Z,2.47
2018-10-01T05:20:51.287Z,2.35
2018-10-01T05:23:19.809Z,2.20
2018-10-01T05:25:48.182Z,2.60
2018-10-01T05:28:16.787Z,2.47
2018-10-01T05:30:45.499Z,2.50
2018-10-01T05:33:13.838Z,2.50
2018-10-01T05:35:42.310Z,2.77
2018-10-01T05:38:10.682Z,2.50
2018-10-01T05:40:39.226Z,2.97
2018-10-01T05:43:07.666Z,2.50
2018-10-01T05:45:36.151Z,2.83
2018-10-01T05:48:04.471Z,2.63
2018-10-01T05:50:32.855Z,2.80
2018-10-01T05:53:01.187Z,3.08
2018-10-01T05:55:29.484Z,2.60
2018-10-01T05:57:57.823Z,2.47
2018-10-01T06:00:26.662Z,2.70
2018-10-01T06:02:55.015Z,2.30
2018-10-01T06:05:23.292Z,3.00
2018-10-01T06:07:51.618Z,2.57
2018-10-01T06:10:20.003Z,2.60
2018-10-01T06:12:48.364Z,2.60
2018-10-01T06:15:16.668Z,2.27
2018-10-01T06:17:45.158Z,2.20
2018-10-01T06:20:13.503Z,2.13
2018-10-01T06:22:42.399Z,1.90
2018-10-01T06:25:10.890Z,1.93
2018-10-01T06:27:39.123Z,2.40
2018-10-01T06:30:07.467Z,2.17
2018-10-01T06:32:35.926Z,2.20
2018-10-01T06:35:04.316Z,3.07
2018-10-01T06:37:32.651Z,1.97
2018-10-01T06:40:00.974Z,1.87
2018-10-01T06:42:29.291Z,1.80
2018-10-01T06:44:57.591Z,2.20
2018-10-01T06:47:25.872Z,2.23
2018-10-01T06:49:54.207Z,2.08
2018-10-01T06:52:22.563Z,2.20
2018-10-01T06:54:50.963Z,2.60
2018-10-01T06:57:19.251Z,2.43
2018-10-01T06:59:47.538Z,1.73
2018-10-01T07:02:15.815Z,1.87
2018-10-01T07:04:44.083Z,2.23
2018-10-01T07:07:12.323Z,2.17
2018-10-01T07:09:40.607Z,2.37
2018-10-01T07:12:08.879Z,2.30
2018-10-01T07:14:37.902Z,2.10
2018-10-01T07:17:06.599Z,1.97
2018-10-01T07:19:34.844Z,1.90
2018-10-01T07:22:03.162Z,2.00
2018-10-01T07:24:31.444Z,1.87
2018-10-01T07:26:59.687Z,1.53
2018-10-01T07:29:27.955Z,1.93
2018-10-01T07:31:56.279Z,2.08
2018-10-01T07:34:24.592Z,2.10
2018-10-01T07:36:52.877Z,1.77
2018-10-01T07:39:21.192Z,2.30
2018-10-01T07:41:49.476Z,2.50
2018-10-01T07:44:17.771Z,2.20
2018-10-01T07:46:46.037Z,1.87
2018-10-01T07:49:14.342Z,2.00
2018-10-01T07:51:42.996Z,2.33
2018-10-01T07:54:11.384Z,2.07
2018-10-01T07:56:39.900Z,2.23
2018-10-01T07:59:08.224Z,1.93
2018-10-01T08:01:36.521Z,2.10
2018-10-01T08:04:04.820Z,2.07
2018-10-01T08:06:32.840Z,2.10
2018-10-01T08:09:00.849Z,2.07
2018-10-01T08:11:29.145Z,2.20
2018-10-01T08:13:57.461Z,1.83
2018-10-01T08:16:25.732Z,2.03
2018-10-01T08:18:54.064Z,1.83
2018-10-01T08:21:22.380Z,1.37
2018-10-01T08:23:50.672Z,2.43
2018-10-01T08:26:19.141Z,1.77
2018-10-01T08:28:47.351Z,2.10
2018-10-01T08:31:15.624Z,2.10
2018-10-01T08:33:44.049Z,1.83
2018-10-01T08:36:12.316Z,1.80
2018-10-01T08:38:40.769Z,1.83
2018-10-01T08:41:09.147Z,1.87
2018-10-01T08:43:37.441Z,1.90
2018-10-01T08:46:05.773Z,2.00
2018-10-01T08:48:36.193Z,1.87
2018-10-01T08:52:09.204Z,1.80
2018-10-01T08:54:40.022Z,2.20
2018-10-01T08:57:08.349Z,1.80
2018-10-01T08:59:36.757Z,1.43
2018-10-01T09:02:05.067Z,0.87
2018-10-01T09:04:33.911Z,1.50
2018-10-01T09:07:03.037Z,1.17
2018-10-01T09:09:31.337Z,2.47
2018-10-01T09:11:59.335Z,1.37
2018-10-01T09:14:27.402Z,2.00
2018-10-01T09:16:55.399Z,1.07
2018-10-01T09:19:23.365Z,1.40
2018-10-01T09:21:51.670Z,1.60
2018-10-01T09:24:19.970Z,1.20
2018-10-01T09:26:48.280Z,1.15
2018-10-01T09:29:16.686Z,1.97
2018-10-01T09:31:44.906Z,1.90
2018-10-01T09:34:13.233Z,1.83
2018-10-01T09:36:41.545Z,1.20
2018-10-01T09:39:10.685Z,1.50
2018-10-01T09:41:39.986Z,1.80
2018-10-01T09:44:08.485Z,1.60
2018-10-01T09:46:36.547Z,1.50
2018-10-01T09:49:04.958Z,1.40
2018-10-01T09:51:33.350Z,1.40
2018-10-01T09:54:02.213Z,1.30
2018-10-01T09:56:31.256Z,1.67
2018-10-01T09:58:59.497Z,0.83
2018-10-01T10:01:27.641Z,1.40
2018-10-01T10:03:56.103Z,1.30
2018-10-01T10:06:25.274Z,1.00
2018-10-01T10:08:53.366Z,0.90
2018-10-01T10:11:21.569Z,1.43
2018-10-01T10:13:50.054Z,1.20
2018-10-01T10:16:18.476Z,1.57
2018-10-01T10:18:46.671Z,1.10
2018-10-01T10:21:14.886Z,1.00
2018-10-01T10:23:43.417Z,1.67
2018-10-01T10:26:12.725Z,0.93
2018-10-01T10:28:41.066Z,1.20
2018-10-01T10:31:09.593Z,1.83
2018-10-01T10:33:37.994Z,1.37
2018-10-01T10:36:06.314Z,1.20
2018-10-01T10:38:34.361Z,0.87
2018-10-01T10:41:02.737Z,0.80
2018-10-01T10:43:31.211Z,1.53
2018-10-01T10:45:59.497Z,0.75
2018-10-01T10:48:27.604Z,1.17
2018-10-01T10:50:55.707Z,1.60
2018-10-01T10:53:24.014Z,1.07
2018-10-01T10:55:52.394Z,1.13
2018-10-01T10:58:20.670Z,0.73
2018-10-01T11:00:48.959Z,0.60
2018-10-01T11:03:17.294Z,0.47
2018-10-01T11:05:45.286Z,0.87
2018-10-01T11:08:13.603Z,0.63
2018-10-01T11:10:41.570Z,0.70
2018-10-01T11:13:16.551Z,0.67
2018-10-01T11:15:44.822Z,0.90
2018-10-01T11:18:13.202Z,0.90
2018-10-01T11:20:41.567Z,1.00
2018-10-01T11:23:09.773Z,1.07
2018-10-01T11:25:38.070Z,1.13
2018-10-01T11:28:06.466Z,1.30
2018-10-01T11:30:34.839Z,2.07
2018-10-01T11:33:03.103Z,1.40
2018-10-01T11:35:31.218Z,2.40
2018-10-01T11:37:59.194Z,1.73
2018-10-01T11:40:27.222Z,1.77
2018-10-01T11:42:55.258Z,1.73
2018-10-01T11:45:23.504Z,1.73
2018-10-01T11:47:51.278Z,1.98
2018-10-01T11:50:19.275Z,1.37
2018-10-01T11:52:47.413Z,1.50
2018-10-01T11:55:15.455Z,2.20
2018-10-01T11:57:44.119Z,2.50
2018-10-01T12:00:13.599Z,1.90
2018-10-01T12:02:41.906Z,1.70
2018-10-01T12:05:10.256Z,2.30
2018-10-01T12:07:38.524Z,1.80
2018-10-01T12:10:06.830Z,1.90
2018-10-01T12:12:35.088Z,2.60
2018-10-01T12:15:03.370Z,2.10
2018-10-01T12:17:31.651Z,2.17
2018-10-01T12:20:00.154Z,2.73
2018-10-01T12:22:28.495Z,1.73
2018-10-01T12:24:56.818Z,1.95
2018-10-01T12:27:25.237Z,2.50
2018-10-01T12:29:53.559Z,2.00
2018-10-01T12:32:21.801Z,2.33
2018-10-01T12:34:49.956Z,2.60
2018-10-01T12:37:17.970Z,2.60
2018-10-01T12:39:46.231Z,2.70
2018-10-01T12:42:14.160Z,1.80
2018-10-01T12:44:42.424Z,1.63
2018-10-01T12:47:10.775Z,1.80
2018-10-01T12:49:39.039Z,2.10
2018-10-01T12:52:07.314Z,2.70
2018-10-01T12:54:35.567Z,1.90
2018-10-01T12:57:03.962Z,1.80
2018-10-01T12:59:32.489Z,1.87
2018-10-01T13:02:00.755Z,2.10
2018-10-01T13:04:28.871Z,2.23
2018-10-01T13:06:56.919Z,3.00
2018-10-01T13:09:24.939Z,2.10
2018-10-01T13:11:52.959Z,2.30
2018-10-01T13:14:20.960Z,2.53
2018-10-01T13:16:49.279Z,2.30
2018-10-01T13:19:17.606Z,2.60
2018-10-01T13:21:45.867Z,2.67
2018-10-01T13:24:14.259Z,2.53
2018-10-01T13:26:42.467Z,2.40
2018-10-01T13:29:10.867Z,2.40
2018-10-01T13:31:39.181Z,2.70
2018-10-01T13:34:07.493Z,2.53
2018-10-01T13:36:35.575Z,2.60
2018-10-01T13:39:05.099Z,2.20
2018-10-01T13:41:33.371Z,2.33
2018-10-01T13:44:01.756Z,2.20
2018-10-01T13:46:30.099Z,2.20
2018-10-01T13:48:58.435Z,2.30
2018-10-01T13:51:26.703Z,1.87
2018-10-01T13:53:55.272Z,2.30
2018-10-01T13:56:23.568Z,2.70
2018-10-01T13:58:51.575Z,2.17
2018-10-01T14:01:19.953Z,2.47
2018-10-01T14:03:48.163Z,2.17
2018-10-01T14:06:16.658Z,1.80
2018-10-01T14:08:44.904Z,1.90
2018-10-01T14:11:13.143Z,1.70
2018-10-01T14:13:41.671Z,1.80
2018-10-01T14:16:10.328Z,1.70
2018-10-01T14:18:38.640Z,1.67
2018-10-01T14:21:06.949Z,1.50
2018-10-01T14:23:35.284Z,1.77
2018-10-01T14:26:03.628Z,1.63
2018-10-01T14:28:31.896Z,1.20
2018-10-01T14:31:00.270Z,1.70
2018-10-01T14:33:28.489Z,1.57
2018-10-01T14:35:56.828Z,1.43
2018-10-01T14:38:25.104Z,2.33
2018-10-01T14:40:53.471Z,1.80
2018-10-01T14:43:21.759Z,1.40
2018-10-01T14:45:50.025Z,1.90
2018-10-01T14:48:18.272Z,1.50
2018-10-01T14:50:46.632Z,1.80
2018-10-01T14:53:14.945Z,1.53
2018-10-01T14:55:43.205Z,1.60
2018-10-01T14:58:11.469Z,1.37
2018-10-01T15:00:39.804Z,1.67
2018-10-01T15:03:07.789Z,1.50
2018-10-01T15:05:36.033Z,1.67
2018-10-01T15:08:04.293Z,1.73
2018-10-01T15:10:32.742Z,1.80
2018-10-01T15:13:00.752Z,1.17
2018-10-01T15:15:29.089Z,0.93
2018-10-01T15:17:57.357Z,0.80
2018-10-01T15:20:25.653Z,1.30
2018-10-01T15:22:53.918Z,1.30
2018-10-01T15:25:22.321Z,1.40
2018-10-01T15:27:51.076Z,1.53
2018-10-01T15:30:19.390Z,1.50
2018-10-01T15:32:47.749Z,1.10
2018-10-01T15:35:16.062Z,1.77
2018-10-01T15:37:44.339Z,1.40
2018-10-01T15:40:12.662Z,1.37
2018-10-01T15:42:40.981Z,1.77
2018-10-01T15:45:09.242Z,1.40
2018-10-01T15:47:37.536Z,1.47
2018-10-01T15:50:05.944Z,1.70
2018-10-01T15:52:34.133Z,1.43
2018-10-01T15:55:02.633Z,1.35
2018-10-01T15:57:30.865Z,1.50
2018-10-01T15:59:59.394Z,1.50
2018-10-01T16:02:27.805Z,1.80
2018-10-01T16:04:56.029Z,2.40
2018-10-01T16:07:24.545Z,1.77
2018-10-01T16:09:52.898Z,1.90
2018-10-01T16:12:21.305Z,1.80
2018-10-01T16:14:49.566Z,2.10
2018-10-01T16:17:18.068Z,1.40
2018-10-01T16:19:46.381Z,2.00
2018-10-01T16:22:14.661Z,1.97
2018-10-01T16:24:43.027Z,1.60
2018-10-01T16:27:11.463Z,1.33
2018-10-01T16:29:43.657Z,2.17
2018-10-01T16:32:11.985Z,2.10
2018-10-01T16:34:40.334Z,1.93
2018-10-01T18:24:26.991Z,2.10
2018-10-01T18:26:55.059Z,3.30
2018-10-01T18:29:23.067Z,2.30
2018-10-01T18:31:51.099Z,2.07
2018-10-01T18:34:19.106Z,2.50
2018-10-01T18:36:47.123Z,2.57
2018-10-01T18:39:18.154Z,2.33
2018-10-01T18:41:47.564Z,2.40
2018-10-01T18:44:16.118Z,2.50
2018-10-01T18:46:45.410Z,2.40
2018-10-01T18:49:13.687Z,2.03
2018-10-01T18:51:41.931Z,2.33
2018-10-01T18:54:10.271Z,2.10
2018-10-01T18:56:38.627Z,2.47
2018-10-01T18:59:07.028Z,3.23
2018-10-01T19:01:35.454Z,2.27
2018-10-01T19:04:03.712Z,2.70
2018-10-01T19:06:32.055Z,2.30
2018-10-01T19:09:01.231Z,2.60
2018-10-01T19:11:36.350Z,2.43
2018-10-01T19:14:04.687Z,2.20
2018-10-01T19:16:33.025Z,2.17
2018-10-01T19:19:03.494Z,2.00
2018-10-01T19:21:31.827Z,2.60
2018-10-01T19:24:00.376Z,2.10
2018-10-01T19:26:28.982Z,2.30
2018-10-01T19:28:57.319Z,2.50
2018-10-01T19:31:25.552Z,2.53
2018-10-01T19:33:54.076Z,2.77
2018-10-01T19:36:22.384Z,2.60
2018-10-01T19:38:50.828Z,2.77
2018-10-01T19:41:19.072Z,2.90
2018-10-01T19:43:47.324Z,2.60
2018-10-01T19:46:15.636Z,3.03
2018-10-01T19:48:43.995Z,2.83
2018-10-01T19:51:12.306Z,2.07
2018-10-01T19:53:40.531Z,2.33
2018-10-01T19:56:08.821Z,2.20
2018-10-01T19:58:37.192Z,2.50
2018-10-01T20:01:05.464Z,2.30
2018-10-01T20:03:33.772Z,2.50
2018-10-01T20:06:02.037Z,2.20
2018-10-01T20:08:30.304Z,2.40
2018-10-01T20:10:58.684Z,3.23
2018-10-01T20:13:26.991Z,2.77
2018-10-01T20:15:55.290Z,2.80
2018-10-01T20:18:23.500Z,2.77
2018-10-01T20:20:51.846Z,2.50
2018-10-01T20:23:20.077Z,2.90
2018-10-01T20:25:48.374Z,2.67
2018-10-01T20:28:16.699Z,2.87
2018-10-01T20:30:44.904Z,3.20
2018-10-01T20:33:13.196Z,2.97
2018-10-01T20:35:41.562Z,3.03
2018-10-01T20:38:09.704Z,3.20
2018-10-01T20:40:38.041Z,2.40
2018-10-01T20:43:06.327Z,2.27
2018-10-01T20:45:34.564Z,2.60
2018-10-01T20:48:02.959Z,2.50
2018-10-01T20:50:31.121Z,2.33
2018-10-01T20:52:59.541Z,2.40
2018-10-01T20:55:27.641Z,2.80
2018-10-01T20:57:55.889Z,2.37
2018-10-01T21:00:24.145Z,2.63
2018-10-01T21:02:52.422Z,4.07
2018-10-01T21:05:20.669Z,2.47
2018-10-01T21:07:48.937Z,3.10
2018-10-01T21:10:17.189Z,2.43
2018-10-01T21:12:45.408Z,2.63
2018-10-01T21:15:13.680Z,2.77
2018-10-01T21:17:42.113Z,2.30
2018-10-01T21:20:10.374Z,2.17
2018-10-01T21:22:38.643Z,2.47
2018-10-01T21:25:07.022Z,2.70
2018-10-01T21:27:35.257Z,2.23
2018-10-01T21:30:03.698Z,2.45
2018-10-01T21:32:32.014Z,2.17
2018-10-01T21:35:00.293Z,2.47
2018-10-01T21:37:28.656Z,2.67
2018-10-01T21:40:06.726Z,2.60
2018-10-01T21:42:35.041Z,2.67
2018-10-01T21:45:03.571Z,2.90
2018-10-01T21:47:32.262Z,3.37
2018-10-01T21:50:00.526Z,2.60
2018-10-01T21:52:29.217Z,2.90
2018-10-01T21:54:57.745Z,2.33
2018-10-01T21:57:26.030Z,2.47
2018-10-01T21:59:54.354Z,2.60
2018-10-01T22:02:22.633Z,2.70
2018-10-01T22:04:51.034Z,2.40
2018-10-01T22:07:19.513Z,2.63
2018-10-01T22:09:48.573Z,2.53
2018-10-01T22:12:16.882Z,2.20
2018-10-01T22:14:45.134Z,2.33
2018-10-01T22:17:13.450Z,2.40
2018-10-01T22:19:41.694Z,2.73
2018-10-01T22:22:10.277Z,2.60
2018-10-01T22:24:38.525Z,2.50
2018-10-01T22:27:06.802Z,2.50
2018-10-01T22:29:35.113Z,2.57
2018-10-01T22:32:03.349Z,2.33
2018-10-01T22:34:31.593Z,2.20
2018-10-01T22:36:59.849Z,2.80
2018-10-01T22:39:28.145Z,2.67
2018-10-01T22:41:56.450Z,3.00
2018-10-01T22:44:24.714Z,2.27
2018-10-01T22:46:53.005Z,3.00
2018-10-01T22:49:21.245Z,2.40
2018-10-01T22:51:49.549Z,2.40
2018-10-01T22:54:17.821Z,2.30
2018-10-01T22:56:46.060Z,2.63
2018-10-01T22:59:14.310Z,2.07
2018-10-01T23:01:42.652Z,2.20
2018-10-01T23:04:10.941Z,2.57
2018-10-01T23:06:39.181Z,2.30
2018-10-01T23:09:08.222Z,2.13
2018-10-01T23:11:36.721Z,2.20
2018-10-01T23:14:04.970Z,2.43
2018-10-01T23:16:33.449Z,2.53
2018-10-01T23:19:01.710Z,2.37
2018-10-01T23:21:30.121Z,2.50
2018-10-01T23:23:58.349Z,2.30
2018-10-01T23:26:26.622Z,2.20
2018-10-01T23:28:54.882Z,2.43
2018-10-01T23:31:23.142Z,2.80
2018-10-01T23:33:51.426Z,2.10
2018-10-01T23:36:19.654Z,2.30
2018-10-01T23:38:48.466Z,2.40
2018-10-01T23:41:16.757Z,2.93
2018-10-01T23:43:45.030Z,2.20
2018-10-01T23:46:13.293Z,2.43
2018-10-01T23:48:41.538Z,2.30
2018-10-01T23:51:09.774Z,2.20
2018-10-01T23:53:38.090Z,2.60
2018-10-01T23:56:06.370Z,2.37
2018-10-01T23:58:34.606Z,2.80
